sensor_id;sensor_type;location;lat;lon;timestamp;P1;P2;P0
53698;PMS7003;68408;53.952;27.612;2024-03-07T00:04:49;8.8;6.5;5.4
53698;PMS7003;68408;53.952;27.612;2024-03-07T00:19:43;9;7.2;5.3
53698;PMS7003;68408;53.952;27.612;2024-03-07T00:24:55;10.3;7.5;5.7
53698;PMS7003;68408;53.952;27.612;2024-03-07T00:29:43;10.6;7.3;5.6
53698;PMS7003;68408;53.952;27.612;2024-03-07T00:34:39;9.2;6.4;5
53698;PMS7003;68408;53.952;27.612;2024-03-07T00:39:23;9.6;7.2;5.2
53698;PMS7003;68408;53.952;27.612;2024-03-07T00:44:39;9.6;7.7;6
53698;PMS7003;68408;53.952;27.612;2024-03-07T00:49:55;11.1;8.6;6.7
53698;PMS7003;68408;53.952;27.612;2024-03-07T00:54:23;10.6;7.3;5.7
53698;PMS7003;68408;53.952;27.612;2024-03-07T00:59:53;10.2;7.3;5.5
53698;PMS7003;68408;53.952;27.612;2024-03-07T01:04:41;9.9;7.7;5.8
53698;PMS7003;68408;53.952;27.612;2024-03-07T01:10:03;9.2;6.4;4.9
53698;PMS7003;68408;53.952;27.612;2024-03-07T01:14:41;9.5;7.5;5.9
53698;PMS7003;68408;53.952;27.612;2024-03-07T01:20:03;9.3;6.5;5
53698;PMS7003;68408;53.952;27.612;2024-03-07T01:24:37;8.3;6.6;5.2
53698;PMS7003;68408;53.952;27.612;2024-03-07T01:29:51;8.4;6.3;5.1
53698;PMS7003;68408;53.952;27.612;2024-03-07T01:34:31;9.8;7;5
53698;PMS7003;68408;53.952;27.612;2024-03-07T01:39:49;9.1;6.6;5.2
53698;PMS7003;68408;53.952;27.612;2024-03-07T01:44:51;9.4;6.9;5.3
53698;PMS7003;68408;53.952;27.612;2024-03-07T01:49:51;8.8;7.1;5.7
53698;PMS7003;68408;53.952;27.612;2024-03-07T01:54:43;9.1;6.9;5.1
53698;PMS7003;68408;53.952;27.612;2024-03-07T02:00:03;9.5;6.6;5
53698;PMS7003;68408;53.952;27.612;2024-03-07T02:05:03;8.7;6.9;5.4
53698;PMS7003;68408;53.952;27.612;2024-03-07T02:09:59;9.3;7.1;5.4
53698;PMS7003;68408;53.952;27.612;2024-03-07T02:14:23;9.1;6.9;5.6
53698;PMS7003;68408;53.952;27.612;2024-03-07T02:19:31;9.9;7.9;6
53698;PMS7003;68408;53.952;27.612;2024-03-07T02:24:29;8.9;8;6.1
53698;PMS7003;68408;53.952;27.612;2024-03-07T02:29:23;8.9;6.7;4.7
53698;PMS7003;68408;53.952;27.612;2024-03-07T02:34:29;9.8;8.1;5.9
53698;PMS7003;68408;53.952;27.612;2024-03-07T02:39:53;9.2;7.2;5.6
53698;PMS7003;68408;53.952;27.612;2024-03-07T02:44:31;9.8;7.8;5.9
53698;PMS7003;68408;53.952;27.612;2024-03-07T02:49:29;8.6;6.9;5.6
53698;PMS7003;68408;53.952;27.612;2024-03-07T02:55:01;10.2;7.6;5.5
53698;PMS7003;68408;53.952;27.612;2024-03-07T02:59:53;7.7;6.4;4.9
53698;PMS7003;68408;53.952;27.612;2024-03-07T03:04:43;11.2;8.7;6.4
53698;PMS7003;68408;53.952;27.612;2024-03-07T03:09:35;11.1;7.8;6
53698;PMS7003;68408;53.952;27.612;2024-03-07T03:14:47;10.5;8.1;5.5
53698;PMS7003;68408;53.952;27.612;2024-03-07T03:19:49;8.9;5.9;4.5
53698;PMS7003;68408;53.952;27.612;2024-03-07T03:24:35;8.7;7.4;5.9
53698;PMS7003;68408;53.952;27.612;2024-03-07T03:29:41;9;6.8;5.4
53698;PMS7003;68408;53.952;27.612;2024-03-07T03:34:25;10.6;7.1;5.8
53698;PMS7003;68408;53.952;27.612;2024-03-07T03:39:59;8.7;6.2;4.9
53698;PMS7003;68408;53.952;27.612;2024-03-07T03:44:31;9.3;7.5;5.6
53698;PMS7003;68408;53.952;27.612;2024-03-07T03:49:49;8.9;7.5;6
53698;PMS7003;68408;53.952;27.612;2024-03-07T03:54:23;10.1;7.5;5.8
53698;PMS7003;68408;53.952;27.612;2024-03-07T03:59:31;10.6;7.7;6
53698;PMS7003;68408;53.952;27.612;2024-03-07T04:04:31;10.7;8.5;7
53698;PMS7003;68408;53.952;27.612;2024-03-07T04:09:37;10;8.2;6.5
53698;PMS7003;68408;53.952;27.612;2024-03-07T04:14:31;11.1;8.8;6.6
53698;PMS7003;68408;53.952;27.612;2024-03-07T04:20:03;17.7;14.1;10
53698;PMS7003;68408;53.952;27.612;2024-03-07T04:24:55;16.5;13;10.2
53698;PMS7003;68408;53.952;27.612;2024-03-07T04:30:01;14.2;11.5;8.8
53698;PMS7003;68408;53.952;27.612;2024-03-07T04:35:03;11.5;9.2;7
53698;PMS7003;68408;53.952;27.612;2024-03-07T04:39:45;11.5;8.7;7.1
53698;PMS7003;68408;53.952;27.612;2024-03-07T04:44:23;13.6;10.1;7.6
53698;PMS7003;68408;53.952;27.612;2024-03-07T04:49:47;12.7;9.8;7.3
53698;PMS7003;68408;53.952;27.612;2024-03-07T04:54:49;11.5;9.5;7
53698;PMS7003;68408;53.952;27.612;2024-03-07T04:59:29;11.9;9.8;7.7
53698;PMS7003;68408;53.952;27.612;2024-03-07T05:04:47;10.7;9.4;7.4
53698;PMS7003;68408;53.952;27.612;2024-03-07T05:09:55;12.8;9.8;7.8
53698;PMS7003;68408;53.952;27.612;2024-03-07T05:15:01;12.5;10.3;7.6
53698;PMS7003;68408;53.952;27.612;2024-03-07T05:19:43;11.1;9.2;7
53698;PMS7003;68408;53.952;27.612;2024-03-07T05:24:49;16.3;13.5;10.1
53698;PMS7003;68408;53.952;27.612;2024-03-07T05:30:01;11.6;10;7.7
53698;PMS7003;68408;53.952;27.612;2024-03-07T05:34:23;13;10.9;8.4
53698;PMS7003;68408;53.952;27.612;2024-03-07T05:39:23;12.4;9.7;7.3
53698;PMS7003;68408;53.952;27.612;2024-03-07T05:44:23;11.6;10.4;8.3
53698;PMS7003;68408;53.952;27.612;2024-03-07T05:49:23;15.9;12.8;9.6
53698;PMS7003;68408;53.952;27.612;2024-03-07T05:55:01;13.8;9.5;7.7
53698;PMS7003;68408;53.952;27.612;2024-03-07T05:59:55;12.7;10.1;8.1
53698;PMS7003;68408;53.952;27.612;2024-03-07T06:05:01;13.8;10.9;8.4
53698;PMS7003;68408;53.952;27.612;2024-03-07T06:10:03;13.4;11.1;8.2
53698;PMS7003;68408;53.952;27.612;2024-03-07T06:14:55;14.1;12.1;9.5
53698;PMS7003;68408;53.952;27.612;2024-03-07T06:20:05;17.4;14.8;11.1
53698;PMS7003;68408;53.952;27.612;2024-03-07T06:25:05;19.2;16.1;12.8
53698;PMS7003;68408;53.952;27.612;2024-03-07T06:29:37;19.2;16.1;12.8
53698;PMS7003;68408;53.952;27.612;2024-03-07T06:34:51;20.7;15.4;11.5
53698;PMS7003;68408;53.952;27.612;2024-03-07T06:39:49;17.7;15.6;12.2
53698;PMS7003;68408;53.952;27.612;2024-03-07T06:44:55;17.8;15.3;11.7
53698;PMS7003;68408;53.952;27.612;2024-03-07T06:50:05;16.1;13.1;10.5
53698;PMS7003;68408;53.952;27.612;2024-03-07T06:54:23;16.1;13.1;10.5
53698;PMS7003;68408;53.952;27.612;2024-03-07T06:59:45;16.4;13.1;10.2
53698;PMS7003;68408;53.952;27.612;2024-03-07T07:04:43;13.7;11.5;8.9
53698;PMS7003;68408;53.952;27.612;2024-03-07T07:09:31;15.4;13.1;10
53698;PMS7003;68408;53.952;27.612;2024-03-07T07:14:53;15.5;13;10
53698;PMS7003;68408;53.952;27.612;2024-03-07T07:19:23;20;15.8;12.1
53698;PMS7003;68408;53.952;27.612;2024-03-07T07:29:47;15.8;12.7;10.3
53698;PMS7003;68408;53.952;27.612;2024-03-07T07:39:33;15.1;11.6;8.7
53698;PMS7003;68408;53.952;27.612;2024-03-07T07:45:03;12;9.5;7.5
53698;PMS7003;68408;53.952;27.612;2024-03-07T07:49:23;10;8.2;6.1
53698;PMS7003;68408;53.952;27.612;2024-03-07T07:55:03;12.2;9.6;7.5
53698;PMS7003;68408;53.952;27.612;2024-03-07T07:59:31;10.1;7.7;6
53698;PMS7003;68408;53.952;27.612;2024-03-07T08:35:04;7.9;6.2;4.7
53698;PMS7003;68408;53.952;27.612;2024-03-07T08:40:05;7.8;5.3;4.3
53698;PMS7003;68408;53.952;27.612;2024-03-07T08:44:43;7.8;5.3;4.3
53698;PMS7003;68408;53.952;27.612;2024-03-07T08:49:31;12.5;9.6;7.2
53698;PMS7003;68408;53.952;27.612;2024-03-07T08:54:31;6.7;4.7;3.8
53698;PMS7003;68408;53.952;27.612;2024-03-07T08:59:53;5.8;4.7;3.7
53698;PMS7003;68408;53.952;27.612;2024-03-07T09:04:31;8.6;6.2;5
53698;PMS7003;68408;53.952;27.612;2024-03-07T09:09:55;7.8;5.6;4.3
53698;PMS7003;68408;53.952;27.612;2024-03-07T09:14:39;7.8;6.5;5.5
53698;PMS7003;68408;53.952;27.612;2024-03-07T09:20:05;9.9;8.3;6.5
53698;PMS7003;68408;53.952;27.612;2024-03-07T09:24:23;9.9;8.3;6.5
53698;PMS7003;68408;53.952;27.612;2024-03-07T09:30:06;7.6;5.9;4.8
53698;PMS7003;68408;53.952;27.612;2024-03-07T09:34:39;7.6;5.9;4.8
53698;PMS7003;68408;53.952;27.612;2024-03-07T09:40:05;6.5;4.5;3.4
53698;PMS7003;68408;53.952;27.612;2024-03-07T09:44:23;6.5;4.5;3.4
53698;PMS7003;68408;53.952;27.612;2024-03-07T09:49:51;7.7;5.1;3.8
53698;PMS7003;68408;53.952;27.612;2024-03-07T09:54:53;5.7;4.5;3.4
53698;PMS7003;68408;53.952;27.612;2024-03-07T09:59:53;6.4;4.5;3.6
53698;PMS7003;68408;53.952;27.612;2024-03-07T10:04:43;5.1;4.2;3
53698;PMS7003;68408;53.952;27.612;2024-03-07T10:10:03;6.6;5;3.9
53698;PMS7003;68408;53.952;27.612;2024-03-07T10:14:48;6.8;5.4;4.2
53698;PMS7003;68408;53.952;27.612;2024-03-07T10:19:51;6.6;5.1;4
53698;PMS7003;68408;53.952;27.612;2024-03-07T10:24:23;8.1;6;4.4
53698;PMS7003;68408;53.952;27.612;2024-03-07T10:29:33;7.7;5.2;3.9
53698;PMS7003;68408;53.952;27.612;2024-03-07T10:34:39;6.6;5;3.8
53698;PMS7003;68408;53.952;27.612;2024-03-07T10:39:31;5.6;4;3.2
53698;PMS7003;68408;53.952;27.612;2024-03-07T10:44:49;5.3;3.8;3.1
53698;PMS7003;68408;53.952;27.612;2024-03-07T10:49:31;5.7;3.8;2.9
53698;PMS7003;68408;53.952;27.612;2024-03-07T10:54:27;7.2;5.8;4.5
53698;PMS7003;68408;53.952;27.612;2024-03-07T10:59:41;8.4;6.3;4.7
53698;PMS7003;68408;53.952;27.612;2024-03-07T11:05:03;6.4;5.5;4.2
53698;PMS7003;68408;53.952;27.612;2024-03-07T11:09:45;6.9;5.5;4.1
53698;PMS7003;68408;53.952;27.612;2024-03-07T11:14:35;10;7.9;5.6
53698;PMS7003;68408;53.952;27.612;2024-03-07T11:19:39;7.7;6.5;4.9
53698;PMS7003;68408;53.952;27.612;2024-03-07T11:24:25;5;4.1;3.1
53698;PMS7003;68408;53.952;27.612;2024-03-07T11:29:53;5.5;4.3;3.4
53698;PMS7003;68408;53.952;27.612;2024-03-07T11:34:39;4.7;3.9;3
53698;PMS7003;68408;53.952;27.612;2024-03-07T11:39:39;4.4;3.4;2.9
53698;PMS7003;68408;53.952;27.612;2024-03-07T11:44:53;4.8;3.7;3.1
53698;PMS7003;68408;53.952;27.612;2024-03-07T11:50:05;4.7;2.7;2.1
53698;PMS7003;68408;53.952;27.612;2024-03-07T11:54:35;4.7;2.7;2.1
53698;PMS7003;68408;53.952;27.612;2024-03-07T11:59:53;4;2.9;2.5
53698;PMS7003;68408;53.952;27.612;2024-03-07T12:04:41;6;4.6;3.6
53698;PMS7003;68408;53.952;27.612;2024-03-07T12:09:23;5;3;2.5
53698;PMS7003;68408;53.952;27.612;2024-03-07T12:14:31;4.2;3.2;2.6
53698;PMS7003;68408;53.952;27.612;2024-03-07T12:19:31;5.3;4.2;3.4
53698;PMS7003;68408;53.952;27.612;2024-03-07T12:24:23;3.9;3.3;2.7
53698;PMS7003;68408;53.952;27.612;2024-03-07T12:30:03;7;5.9;4.4
53698;PMS7003;68408;53.952;27.612;2024-03-07T12:34:55;10.5;8.8;6.1
53698;PMS7003;68408;53.952;27.612;2024-03-07T12:40:11;2.6;2;1.8
53698;PMS7003;68408;53.952;27.612;2024-03-07T12:44:55;2.6;2;1.8
53698;PMS7003;68408;53.952;27.612;2024-03-07T12:49:31;2.8;2.2;1.9
53698;PMS7003;68408;53.952;27.612;2024-03-07T12:55:05;2.6;2.1;1.7
53698;PMS7003;68408;53.952;27.612;2024-03-07T13:00:05;2.6;2.4;2
53698;PMS7003;68408;53.952;27.612;2024-03-07T13:04:45;2.6;2.4;2
53698;PMS7003;68408;53.952;27.612;2024-03-07T13:09:39;2.7;2;1.5
53698;PMS7003;68408;53.952;27.612;2024-03-07T13:14:55;1.9;1.5;1.2
53698;PMS7003;68408;53.952;27.612;2024-03-07T13:19:53;2.9;2.3;2
53698;PMS7003;68408;53.952;27.612;2024-03-07T13:24:27;2.7;2.3;1.8
53698;PMS7003;68408;53.952;27.612;2024-03-07T13:29:31;3.4;2.9;2.1
53698;PMS7003;68408;53.952;27.612;2024-03-07T13:34:53;2.6;2.1;1.7
53698;PMS7003;68408;53.952;27.612;2024-03-07T13:39:23;1.8;1.8;1.7
53698;PMS7003;68408;53.952;27.612;2024-03-07T13:44:53;2.4;2.3;1.6
53698;PMS7003;68408;53.952;27.612;2024-03-07T13:49:31;1.8;1.8;1.5
53698;PMS7003;68408;53.952;27.612;2024-03-07T13:54:53;2.5;2.1;1.8
53698;PMS7003;68408;53.952;27.612;2024-03-07T13:59:28;2.4;2;1.6
53698;PMS7003;68408;53.952;27.612;2024-03-07T14:05:15;1.5;1.5;1.2
53698;PMS7003;68408;53.952;27.612;2024-03-07T14:10:00;2.4;1.8;1.5
53698;PMS7003;68408;53.952;27.612;2024-03-07T14:15:43;1.5;1.4;1.2
53698;PMS7003;68408;53.952;27.612;2024-03-07T14:20:13;1.7;1.3;1
53698;PMS7003;68408;53.952;27.612;2024-03-07T14:24:37;1.7;1.3;1
53698;PMS7003;68408;53.952;27.612;2024-03-07T14:29:43;2;1.6;1.2
53698;PMS7003;68408;53.952;27.612;2024-03-07T14:35:06;2.4;1.8;1.4
53698;PMS7003;68408;53.952;27.612;2024-03-07T14:39:25;1.6;1.4;1.2
53698;PMS7003;68408;53.952;27.612;2024-03-07T14:44:31;1.7;1.2;1.1
53698;PMS7003;68408;53.952;27.612;2024-03-07T14:49:51;1.6;1.2;0.9
53698;PMS7003;68408;53.952;27.612;2024-03-07T14:54:55;1.6;1.2;1
53698;PMS7003;68408;53.952;27.612;2024-03-07T15:00:03;1.5;1.3;1.1
53698;PMS7003;68408;53.952;27.612;2024-03-07T15:04:43;1.5;1.3;1.1
53698;PMS7003;68408;53.952;27.612;2024-03-07T15:10:06;2.4;1.8;1.5
53698;PMS7003;68408;53.952;27.612;2024-03-07T15:14:43;2.4;1.8;1.5
53698;PMS7003;68408;53.952;27.612;2024-03-07T15:19:49;4;3.6;2.8
53698;PMS7003;68408;53.952;27.612;2024-03-07T15:24:35;5;4;3
53698;PMS7003;68408;53.952;27.612;2024-03-07T15:29:23;4.1;3.7;2.9
53698;PMS7003;68408;53.952;27.612;2024-03-07T15:34:43;4.8;3.8;2.9
53698;PMS7003;68408;53.952;27.612;2024-03-07T15:39:37;4.2;3.7;2.8
53698;PMS7003;68408;53.952;27.612;2024-03-07T15:44:53;5.2;4.5;3.3
53698;PMS7003;68408;53.952;27.612;2024-03-07T15:49:23;7.8;6.7;5.1
53698;PMS7003;68408;53.952;27.612;2024-03-07T15:55:03;8.5;7.1;5.8
53698;PMS7003;68408;53.952;27.612;2024-03-07T15:59:42;4.7;4.1;3.1
53698;PMS7003;68408;53.952;27.612;2024-03-07T16:05:05;4.8;4.5;3.3
53698;PMS7003;68408;53.952;27.612;2024-03-07T16:10:05;4.1;3.1;2.6
53698;PMS7003;68408;53.952;27.612;2024-03-07T16:14:53;4.1;3.1;2.6
53698;PMS7003;68408;53.952;27.612;2024-03-07T16:19:39;3.4;3.1;2.4
53698;PMS7003;68408;53.952;27.612;2024-03-07T16:24:51;5.5;4.6;3.5
53698;PMS7003;68408;53.952;27.612;2024-03-07T16:30:05;5.2;4;3.4
53698;PMS7003;68408;53.952;27.612;2024-03-07T16:34:53;5.2;4;3.4
53698;PMS7003;68408;53.952;27.612;2024-03-07T16:39:35;7.8;6.9;5.8
53698;PMS7003;68408;53.952;27.612;2024-03-07T16:45:03;7;6.7;5.1
53698;PMS7003;68408;53.952;27.612;2024-03-07T16:50:05;9.6;8.1;6.7
53698;PMS7003;68408;53.952;27.612;2024-03-07T16:54:55;9.6;8.1;6.7
53698;PMS7003;68408;53.952;27.612;2024-03-07T16:59:23;12.5;11.1;7.9
53698;PMS7003;68408;53.952;27.612;2024-03-07T17:04:23;16.4;14.7;10.3
53698;PMS7003;68408;53.952;27.612;2024-03-07T17:09:23;18.9;15.6;10.7
53698;PMS7003;68408;53.952;27.612;2024-03-07T17:14:23;16.9;15.2;11.5
53698;PMS7003;68408;53.952;27.612;2024-03-07T17:19:23;13;10.9;8.5
53698;PMS7003;68408;53.952;27.612;2024-03-07T17:24:23;14.1;12.4;9.4
53698;PMS7003;68408;53.952;27.612;2024-03-07T17:29:25;15.9;15.2;11.1
53698;PMS7003;68408;53.952;27.612;2024-03-07T17:34:43;15.5;13.8;9.6
53698;PMS7003;68408;53.952;27.612;2024-03-07T17:40:04;13.7;12.6;9.1
53698;PMS7003;68408;53.952;27.612;2024-03-07T17:44:37;11.3;10.4;7.8
53698;PMS7003;68408;53.952;27.612;2024-03-07T17:49:51;12.1;10.1;7.5
53698;PMS7003;68408;53.952;27.612;2024-03-07T17:54:37;10.8;9.9;6.8
53698;PMS7003;68408;53.952;27.612;2024-03-07T17:59:47;10;8.3;6.6
53698;PMS7003;68408;53.952;27.612;2024-03-07T18:05:01;8.8;7;5.3
53698;PMS7003;68408;53.952;27.612;2024-03-07T18:09:31;8.8;7.1;5.3
53698;PMS7003;68408;53.952;27.612;2024-03-07T18:14:41;7.8;6.7;5.5
53698;PMS7003;68408;53.952;27.612;2024-03-07T18:19:49;8.8;7;5.1
53698;PMS7003;68408;53.952;27.612;2024-03-07T18:25:01;8.3;6.5;4.7
53698;PMS7003;68408;53.952;27.612;2024-03-07T18:29:43;7.8;6.9;4.8
53698;PMS7003;68408;53.952;27.612;2024-03-07T18:34:41;10.2;7.9;5.8
53698;PMS7003;68408;53.952;27.612;2024-03-07T18:39:31;8.8;8.3;5.8
53698;PMS7003;68408;53.952;27.612;2024-03-07T18:44:29;9.9;9;6.8
53698;PMS7003;68408;53.952;27.612;2024-03-07T18:49:34;8.7;8.1;6.3
53698;PMS7003;68408;53.952;27.612;2024-03-07T18:54:23;9.7;8.7;6.3
53698;PMS7003;68408;53.952;27.612;2024-03-07T18:59:37;11.2;8.3;6.4
53698;PMS7003;68408;53.952;27.612;2024-03-07T19:04:47;12.2;10.6;7.4
53698;PMS7003;68408;53.952;27.612;2024-03-07T19:09:33;13.8;10.7;8.1
53698;PMS7003;68408;53.952;27.612;2024-03-07T19:15:01;13.1;10;7.3
53698;PMS7003;68408;53.952;27.612;2024-03-07T19:19:51;16.5;14.3;10.4
53698;PMS7003;68408;53.952;27.612;2024-03-07T19:24:47;17.4;15.2;11.1
53698;PMS7003;68408;53.952;27.612;2024-03-07T19:29:24;14.3;11.4;9
53698;PMS7003;68408;53.952;27.612;2024-03-07T19:34:47;13.9;11.7;8.9
53698;PMS7003;68408;53.952;27.612;2024-03-07T19:39:45;14.2;11.7;8.6
53698;PMS7003;68408;53.952;27.612;2024-03-07T19:44:59;12;10.5;7.9
53698;PMS7003;68408;53.952;27.612;2024-03-07T19:49:23;14.1;11.1;8.5
53698;PMS7003;68408;53.952;27.612;2024-03-07T19:54:31;14.9;11.7;8.8
53698;PMS7003;68408;53.952;27.612;2024-03-07T20:00:02;14.2;11.5;9
53698;PMS7003;68408;53.952;27.612;2024-03-07T20:04:42;12.9;10.6;7.4
53698;PMS7003;68408;53.952;27.612;2024-03-07T20:09:51;16.1;13;9.6
53698;PMS7003;68408;53.952;27.612;2024-03-07T20:19:29;14.1;11.4;8.6
53698;PMS7003;68408;53.952;27.612;2024-03-07T20:24:41;14.9;12.5;9.5
53698;PMS7003;68408;53.952;27.612;2024-03-07T20:29:31;15.1;12.8;9.8
53698;PMS7003;68408;53.952;27.612;2024-03-07T20:34:29;15.5;13.8;10.1
53698;PMS7003;68408;53.952;27.612;2024-03-07T20:40:02;14.7;12.1;9.2
53698;PMS7003;68408;53.952;27.612;2024-03-07T20:45:01;15.9;12.8;9.5
53698;PMS7003;68408;53.952;27.612;2024-03-07T20:49:53;15.9;13.6;10.5
53698;PMS7003;68408;53.952;27.612;2024-03-07T20:55:02;16.1;12.9;9.5
53698;PMS7003;68408;53.952;27.612;2024-03-07T20:59:31;14.7;12.1;9.5
53698;PMS7003;68408;53.952;27.612;2024-03-07T21:05:01;16.4;12.7;9.5
53698;PMS7003;68408;53.952;27.612;2024-03-07T21:10:01;17.1;14;10.3
53698;PMS7003;68408;53.952;27.612;2024-03-07T21:14:51;18.8;15.4;11.2
53698;PMS7003;68408;53.952;27.612;2024-03-07T21:19:51;16.3;14.1;10.5
53698;PMS7003;68408;53.952;27.612;2024-03-07T21:25:01;15.6;13.1;9.9
53698;PMS7003;68408;53.952;27.612;2024-03-07T21:29:51;14.9;12;9.1
53698;PMS7003;68408;53.952;27.612;2024-03-07T21:34:59;13.3;10.9;7.8
53698;PMS7003;68408;53.952;27.612;2024-03-07T21:39:41;13.5;11.4;8.6
53698;PMS7003;68408;53.952;27.612;2024-03-07T21:44:59;14.6;12;8.9
53698;PMS7003;68408;53.952;27.612;2024-03-07T21:49:29;14.4;12.3;8.9
53698;PMS7003;68408;53.952;27.612;2024-03-07T21:54:23;13.8;11.7;8.6
53698;PMS7003;68408;53.952;27.612;2024-03-07T21:59:37;13.6;12;9.3
53698;PMS7003;68408;53.952;27.612;2024-03-07T22:04:37;13.3;11.2;8.4
53698;PMS7003;68408;53.952;27.612;2024-03-07T22:09:23;14.2;11.3;8.5
53698;PMS7003;68408;53.952;27.612;2024-03-07T22:15:02;15.4;12.1;8.8
53698;PMS7003;68408;53.952;27.612;2024-03-07T22:19:51;16.1;13;9.8
53698;PMS7003;68408;53.952;27.612;2024-03-07T22:25:01;16.4;11.9;9
53698;PMS7003;68408;53.952;27.612;2024-03-07T22:29:59;16.1;13.6;9.8
53698;PMS7003;68408;53.952;27.612;2024-03-07T22:35:02;17.2;14.1;10.5
53698;PMS7003;68408;53.952;27.612;2024-03-07T22:40:02;12;9.3;6.6
53698;PMS7003;68408;53.952;27.612;2024-03-07T22:44:59;14.1;11.8;9.5
53698;PMS7003;68408;53.952;27.612;2024-03-07T22:49:39;13.6;11;8.1
53698;PMS7003;68408;53.952;27.612;2024-03-07T22:54:23;14.2;12.1;9.4
53698;PMS7003;68408;53.952;27.612;2024-03-07T22:59:47;14.9;11.7;9.1
53698;PMS7003;68408;53.952;27.612;2024-03-07T23:04:53;14.8;11.7;9.3
53698;PMS7003;68408;53.952;27.612;2024-03-07T23:10:02;10.8;8.5;6
53698;PMS7003;68408;53.952;27.612;2024-03-07T23:14:35;14;11.5;8.9
53698;PMS7003;68408;53.952;27.612;2024-03-07T23:20:02;13.8;11.4;7.9
53698;PMS7003;68408;53.952;27.612;2024-03-07T23:24:24;14.8;11.6;8.9
53698;PMS7003;68408;53.952;27.612;2024-03-07T23:29:30;14.9;12;8.9
53698;PMS7003;68408;53.952;27.612;2024-03-07T23:34:29;16;11.7;8.9
53698;PMS7003;68408;53.952;27.612;2024-03-07T23:39:23;14;10.4;8.1
53698;PMS7003;68408;53.952;27.612;2024-03-07T23:44:35;12.2;8.8;6.4
53698;PMS7003;68408;53.952;27.612;2024-03-07T23:49:29;11.5;8.1;6.1
53698;PMS7003;68408;53.952;27.612;2024-03-07T23:54:50;12.9;10.4;7.6
53698;PMS7003;68408;53.952;27.612;2024-03-07T23:59:38;14.6;11.3;8.7
